<?xml version="1.0" encoding="UTF-8" standalone="no" ?>
<gpx xmlns="http://www.topografix.com/GPX/1/1" xmlns:xsi="http://www.w3.org/2001/XMLSchema-instance" xsi:schemaLocation="http://www.topografix.com/GPX/1/1 http://www.topografix.com/GPX/1/1/gpx.xsd" version="1.1" creator="VisuGPX - https://www.visugpx.com">
  <metadata>
    <name>La passerelle du Drac</name>
  </metadata>
  <wpt lat="44.8781" lon="5.69121">
    <ele>496</ele>
    <name><![CDATA[Parking plage de Savel]]></name>
  </wpt>
  <wpt lat="44.87312" lon="5.70398">
    <ele>552</ele>
    <name><![CDATA[Carrefour de la boucle Nord]]></name>
  </wpt>
  <wpt lat="44.87293" lon="5.70417">
    <ele>548</ele>
    <name><![CDATA[Bifurcation commune A/R]]></name>
  </wpt>
  <wpt lat="44.86976" lon="5.70942">
    <ele>522</ele>
    <name><![CDATA[Passerelle sur le]]></name>
  </wpt>
  <wpt lat="44.86785" lon="5.70772">
    <ele>538</ele>
    <name><![CDATA[Carrefour de la boucle Sud]]></name>
  </wpt>
  <wpt lat="44.86788" lon="5.70732">
    <ele>534</ele>
    <name><![CDATA[Direction passerelle de l'Ebron]]></name>
  </wpt>
  <wpt lat="44.86531" lon="5.69769">
    <ele>587</ele>
    <name><![CDATA[Cascade - Bifurcation]]></name>
  </wpt>
  <wpt lat="44.86404" lon="5.69908">
    <ele>639</ele>
    <name><![CDATA[Large chemin]]></name>
  </wpt>
  <wpt lat="44.86393" lon="5.69936">
    <ele>641</ele>
    <name><![CDATA[À gauche balisé. Croix Jaune]]></name>
  </wpt>
  <wpt lat="44.86528" lon="5.70699">
    <ele>622</ele>
    <name><![CDATA[Fourche]]></name>
  </wpt>
  <wpt lat="44.87321" lon="5.71341">
    <ele>643</ele>
    <name><![CDATA[Route D116]]></name>
  </wpt>
  <wpt lat="44.8742" lon="5.71011">
    <ele>641</ele>
    <name><![CDATA[Bifurcation - Route D116A]]></name>
  </wpt>
  <wpt lat="44.87817" lon="5.69123">
    <ele>497</ele>
    <name><![CDATA[Parking plage de Savel]]></name>
  </wpt>
  <trk>
    <name><![CDATA[La passerelle du Drac]]></name>
    <trkseg>
      <trkpt lat="44.8781" lon="5.69121">
        <ele>496</ele>
        <time>2021-06-13T11:18:26+02:00</time>
      </trkpt>
      <trkpt lat="44.87797" lon="5.69094">
        <ele>492</ele>
        <time>2021-06-13T11:19:26+02:00</time>
      </trkpt>
      <trkpt lat="44.87794" lon="5.69062">
        <ele>486</ele>
        <time>2021-06-13T11:19:47+02:00</time>
      </trkpt>
      <trkpt lat="44.87782" lon="5.69041">
        <ele>482</ele>
        <time>2021-06-13T11:21:52+02:00</time>
      </trkpt>
      <trkpt lat="44.87763" lon="5.69061">
        <ele>484</ele>
        <time>2021-06-13T11:22:17+02:00</time>
      </trkpt>
      <trkpt lat="44.87745" lon="5.69081">
        <ele>487</ele>
        <time>2021-06-13T11:22:38+02:00</time>
      </trkpt>
      <trkpt lat="44.87739" lon="5.69113">
        <ele>490</ele>
        <time>2021-06-13T11:22:59+02:00</time>
      </trkpt>
      <trkpt lat="44.87719" lon="5.69128">
        <ele>490</ele>
        <time>2021-06-13T11:23:18+02:00</time>
      </trkpt>
      <trkpt lat="44.87704" lon="5.69152">
        <ele>489</ele>
        <time>2021-06-13T11:23:39+02:00</time>
      </trkpt>
      <trkpt lat="44.87703" lon="5.69184">
        <ele>491</ele>
        <time>2021-06-13T11:23:58+02:00</time>
      </trkpt>
      <trkpt lat="44.87706" lon="5.69216">
        <ele>492</ele>
        <time>2021-06-13T11:24:17+02:00</time>
      </trkpt>
      <trkpt lat="44.87713" lon="5.69247">
        <ele>494</ele>
        <time>2021-06-13T11:24:35+02:00</time>
      </trkpt>
      <trkpt lat="44.87709" lon="5.69279">
        <ele>491</ele>
        <time>2021-06-13T11:24:57+02:00</time>
      </trkpt>
      <trkpt lat="44.87703" lon="5.69312">
        <ele>486</ele>
        <time>2021-06-13T11:25:16+02:00</time>
      </trkpt>
      <trkpt lat="44.87696" lon="5.69343">
        <ele>484</ele>
        <time>2021-06-13T11:25:34+02:00</time>
      </trkpt>
      <trkpt lat="44.87692" lon="5.69375">
        <ele>486</ele>
        <time>2021-06-13T11:25:54+02:00</time>
      </trkpt>
      <trkpt lat="44.87694" lon="5.69408">
        <ele>488</ele>
        <time>2021-06-13T11:26:14+02:00</time>
      </trkpt>
      <trkpt lat="44.87704" lon="5.69437">
        <ele>491</ele>
        <time>2021-06-13T11:26:29+02:00</time>
      </trkpt>
      <trkpt lat="44.87719" lon="5.69461">
        <ele>497</ele>
        <time>2021-06-13T11:26:48+02:00</time>
      </trkpt>
      <trkpt lat="44.87733" lon="5.69488">
        <ele>497</ele>
        <time>2021-06-13T11:27:06+02:00</time>
      </trkpt>
      <trkpt lat="44.87745" lon="5.69515">
        <ele>500</ele>
        <time>2021-06-13T11:27:24+02:00</time>
      </trkpt>
      <trkpt lat="44.87734" lon="5.69545">
        <ele>497</ele>
        <time>2021-06-13T11:27:47+02:00</time>
      </trkpt>
      <trkpt lat="44.87711" lon="5.69548">
        <ele>496</ele>
        <time>2021-06-13T11:28:06+02:00</time>
      </trkpt>
      <trkpt lat="44.87687" lon="5.69545">
        <ele>496</ele>
        <time>2021-06-13T11:28:27+02:00</time>
      </trkpt>
      <trkpt lat="44.87664" lon="5.69549">
        <ele>500</ele>
        <time>2021-06-13T11:28:49+02:00</time>
      </trkpt>
      <trkpt lat="44.87648" lon="5.69572">
        <ele>502</ele>
        <time>2021-06-13T11:29:18+02:00</time>
      </trkpt>
      <trkpt lat="44.87644" lon="5.69603">
        <ele>507</ele>
        <time>2021-06-13T11:29:36+02:00</time>
      </trkpt>
      <trkpt lat="44.87665" lon="5.6959">
        <ele>509</ele>
        <time>2021-06-13T11:30:29+02:00</time>
      </trkpt>
      <trkpt lat="44.87647" lon="5.6957">
        <ele>502</ele>
        <time>2021-06-13T11:32:43+02:00</time>
      </trkpt>
      <trkpt lat="44.87665" lon="5.69551">
        <ele>501</ele>
        <time>2021-06-13T11:33:05+02:00</time>
      </trkpt>
      <trkpt lat="44.87643" lon="5.69541">
        <ele>495</ele>
        <time>2021-06-13T11:33:50+02:00</time>
      </trkpt>
      <trkpt lat="44.87632" lon="5.6957">
        <ele>497</ele>
        <time>2021-06-13T11:34:13+02:00</time>
      </trkpt>
      <trkpt lat="44.87615" lon="5.69594">
        <ele>494</ele>
        <time>2021-06-13T11:34:40+02:00</time>
      </trkpt>
      <trkpt lat="44.87601" lon="5.69621">
        <ele>493</ele>
        <time>2021-06-13T11:34:59+02:00</time>
      </trkpt>
      <trkpt lat="44.87591" lon="5.69649">
        <ele>491</ele>
        <time>2021-06-13T11:35:18+02:00</time>
      </trkpt>
      <trkpt lat="44.8758" lon="5.69677">
        <ele>489</ele>
        <time>2021-06-13T11:35:48+02:00</time>
      </trkpt>
      <trkpt lat="44.87557" lon="5.69682">
        <ele>485</ele>
        <time>2021-06-13T11:36:46+02:00</time>
      </trkpt>
      <trkpt lat="44.87535" lon="5.69673">
        <ele>488</ele>
        <time>2021-06-13T11:37:16+02:00</time>
      </trkpt>
      <trkpt lat="44.87512" lon="5.69673">
        <ele>489</ele>
        <time>2021-06-13T11:37:43+02:00</time>
      </trkpt>
      <trkpt lat="44.87491" lon="5.69683">
        <ele>488</ele>
        <time>2021-06-13T11:38:01+02:00</time>
      </trkpt>
      <trkpt lat="44.8747" lon="5.69697">
        <ele>486</ele>
        <time>2021-06-13T11:38:20+02:00</time>
      </trkpt>
      <trkpt lat="44.8745" lon="5.69711">
        <ele>486</ele>
        <time>2021-06-13T11:38:41+02:00</time>
      </trkpt>
      <trkpt lat="44.87435" lon="5.69735">
        <ele>491</ele>
        <time>2021-06-13T11:39:15+02:00</time>
      </trkpt>
      <trkpt lat="44.87426" lon="5.69765">
        <ele>499</ele>
        <time>2021-06-13T11:39:35+02:00</time>
      </trkpt>
      <trkpt lat="44.87419" lon="5.69796">
        <ele>506</ele>
        <time>2021-06-13T11:40:13+02:00</time>
      </trkpt>
      <trkpt lat="44.87443" lon="5.69797">
        <ele>511</ele>
        <time>2021-06-13T11:41:03+02:00</time>
      </trkpt>
      <trkpt lat="44.87464" lon="5.69787">
        <ele>515</ele>
        <time>2021-06-13T11:41:25+02:00</time>
      </trkpt>
      <trkpt lat="44.87452" lon="5.69814">
        <ele>517</ele>
        <time>2021-06-13T11:41:53+02:00</time>
      </trkpt>
      <trkpt lat="44.87443" lon="5.69843">
        <ele>522</ele>
        <time>2021-06-13T11:42:15+02:00</time>
      </trkpt>
      <trkpt lat="44.87432" lon="5.6987">
        <ele>524</ele>
        <time>2021-06-13T11:42:41+02:00</time>
      </trkpt>
      <trkpt lat="44.87416" lon="5.69892">
        <ele>523</ele>
        <time>2021-06-13T11:43:05+02:00</time>
      </trkpt>
      <trkpt lat="44.87404" lon="5.69921">
        <ele>526</ele>
        <time>2021-06-13T11:43:26+02:00</time>
      </trkpt>
      <trkpt lat="44.87392" lon="5.69948">
        <ele>528</ele>
        <time>2021-06-13T11:43:48+02:00</time>
      </trkpt>
      <trkpt lat="44.87376" lon="5.69972">
        <ele>530</ele>
        <time>2021-06-13T11:44:12+02:00</time>
      </trkpt>
      <trkpt lat="44.8736" lon="5.69996">
        <ele>534</ele>
        <time>2021-06-13T11:44:33+02:00</time>
      </trkpt>
      <trkpt lat="44.87339" lon="5.70006">
        <ele>533</ele>
        <time>2021-06-13T11:45:01+02:00</time>
      </trkpt>
      <trkpt lat="44.87316" lon="5.7001">
        <ele>531</ele>
        <time>2021-06-13T11:45:34+02:00</time>
      </trkpt>
      <trkpt lat="44.87293" lon="5.70012">
        <ele>529</ele>
        <time>2021-06-13T11:46:00+02:00</time>
      </trkpt>
      <trkpt lat="44.87271" lon="5.70021">
        <ele>531</ele>
        <time>2021-06-13T11:46:19+02:00</time>
      </trkpt>
      <trkpt lat="44.87249" lon="5.70028">
        <ele>533</ele>
        <time>2021-06-13T11:46:34+02:00</time>
      </trkpt>
      <trkpt lat="44.87227" lon="5.70036">
        <ele>535</ele>
        <time>2021-06-13T11:46:51+02:00</time>
      </trkpt>
      <trkpt lat="44.87205" lon="5.70047">
        <ele>537</ele>
        <time>2021-06-13T11:47:10+02:00</time>
      </trkpt>
      <trkpt lat="44.87193" lon="5.70057">
        <ele>539</ele>
        <time>2021-06-13T11:47:57+02:00</time>
      </trkpt>
      <trkpt lat="44.87203" lon="5.70086">
        <ele>544</ele>
        <time>2021-06-13T11:48:19+02:00</time>
      </trkpt>
      <trkpt lat="44.87218" lon="5.70111">
        <ele>547</ele>
        <time>2021-06-13T11:48:37+02:00</time>
      </trkpt>
      <trkpt lat="44.8723" lon="5.70138">
        <ele>549</ele>
        <time>2021-06-13T11:48:57+02:00</time>
      </trkpt>
      <trkpt lat="44.87241" lon="5.70167">
        <ele>550</ele>
        <time>2021-06-13T11:49:15+02:00</time>
      </trkpt>
      <trkpt lat="44.87242" lon="5.70199">
        <ele>549</ele>
        <time>2021-06-13T11:49:35+02:00</time>
      </trkpt>
      <trkpt lat="44.87242" lon="5.70232">
        <ele>549</ele>
        <time>2021-06-13T11:49:53+02:00</time>
      </trkpt>
      <trkpt lat="44.87246" lon="5.70264">
        <ele>549</ele>
        <time>2021-06-13T11:50:10+02:00</time>
      </trkpt>
      <trkpt lat="44.87259" lon="5.70292">
        <ele>550</ele>
        <time>2021-06-13T11:50:53+02:00</time>
      </trkpt>
      <trkpt lat="44.87274" lon="5.70316">
        <ele>551</ele>
        <time>2021-06-13T11:51:10+02:00</time>
      </trkpt>
      <trkpt lat="44.87289" lon="5.70342">
        <ele>552</ele>
        <time>2021-06-13T11:51:31+02:00</time>
      </trkpt>
      <trkpt lat="44.87301" lon="5.70369">
        <ele>552</ele>
        <time>2021-06-13T11:51:50+02:00</time>
      </trkpt>
      <trkpt lat="44.87312" lon="5.70398">
        <ele>552</ele>
        <time>2021-06-13T11:52:08+02:00</time>
      </trkpt>
      <trkpt lat="44.87293" lon="5.70417">
        <ele>548</ele>
        <time>2021-06-13T11:52:51+02:00</time>
      </trkpt>
      <trkpt lat="44.8727" lon="5.70423">
        <ele>544</ele>
        <time>2021-06-13T11:53:11+02:00</time>
      </trkpt>
      <trkpt lat="44.87248" lon="5.70428">
        <ele>540</ele>
        <time>2021-06-13T11:53:31+02:00</time>
      </trkpt>
      <trkpt lat="44.87231" lon="5.70449">
        <ele>533</ele>
        <time>2021-06-13T11:54:00+02:00</time>
      </trkpt>
      <trkpt lat="44.87219" lon="5.70478">
        <ele>532</ele>
        <time>2021-06-13T11:56:29+02:00</time>
      </trkpt>
      <trkpt lat="44.8723" lon="5.70507">
        <ele>537</ele>
        <time>2021-06-13T11:56:48+02:00</time>
      </trkpt>
      <trkpt lat="44.8722" lon="5.70535">
        <ele>531</ele>
        <time>2021-06-13T11:57:14+02:00</time>
      </trkpt>
      <trkpt lat="44.87211" lon="5.70565">
        <ele>530</ele>
        <time>2021-06-13T11:57:32+02:00</time>
      </trkpt>
      <trkpt lat="44.87203" lon="5.70595">
        <ele>533</ele>
        <time>2021-06-13T11:57:51+02:00</time>
      </trkpt>
      <trkpt lat="44.87187" lon="5.70618">
        <ele>531</ele>
        <time>2021-06-13T11:58:12+02:00</time>
      </trkpt>
      <trkpt lat="44.87172" lon="5.70644">
        <ele>529</ele>
        <time>2021-06-13T11:58:33+02:00</time>
      </trkpt>
      <trkpt lat="44.87154" lon="5.70665">
        <ele>526</ele>
        <time>2021-06-13T11:58:52+02:00</time>
      </trkpt>
      <trkpt lat="44.8714" lon="5.70691">
        <ele>522</ele>
        <time>2021-06-13T11:59:17+02:00</time>
      </trkpt>
      <trkpt lat="44.87156" lon="5.70717">
        <ele>525</ele>
        <time>2021-06-13T11:59:43+02:00</time>
      </trkpt>
      <trkpt lat="44.87173" lon="5.70738">
        <ele>528</ele>
        <time>2021-06-13T12:00:01+02:00</time>
      </trkpt>
      <trkpt lat="44.87173" lon="5.7077">
        <ele>523</ele>
        <time>2021-06-13T12:00:19+02:00</time>
      </trkpt>
      <trkpt lat="44.87156" lon="5.70792">
        <ele>516</ele>
        <time>2021-06-13T12:00:45+02:00</time>
      </trkpt>
      <trkpt lat="44.87133" lon="5.70791">
        <ele>511</ele>
        <time>2021-06-13T12:01:04+02:00</time>
      </trkpt>
      <trkpt lat="44.87111" lon="5.70804">
        <ele>512</ele>
        <time>2021-06-13T12:01:23+02:00</time>
      </trkpt>
      <trkpt lat="44.87099" lon="5.70832">
        <ele>515</ele>
        <time>2021-06-13T12:01:42+02:00</time>
      </trkpt>
      <trkpt lat="44.87082" lon="5.70853">
        <ele>516</ele>
        <time>2021-06-13T12:02:09+02:00</time>
      </trkpt>
      <trkpt lat="44.87061" lon="5.70839">
        <ele>517</ele>
        <time>2021-06-13T12:02:32+02:00</time>
      </trkpt>
      <trkpt lat="44.8704" lon="5.70827">
        <ele>513</ele>
        <time>2021-06-13T12:02:55+02:00</time>
      </trkpt>
      <trkpt lat="44.8703" lon="5.70856">
        <ele>520</ele>
        <time>2021-06-13T12:03:17+02:00</time>
      </trkpt>
      <trkpt lat="44.87027" lon="5.70888">
        <ele>520</ele>
        <time>2021-06-13T12:03:37+02:00</time>
      </trkpt>
      <trkpt lat="44.87016" lon="5.70916">
        <ele>521</ele>
        <time>2021-06-13T12:04:02+02:00</time>
      </trkpt>
      <trkpt lat="44.86999" lon="5.70936">
        <ele>521</ele>
        <time>2021-06-13T12:04:33+02:00</time>
      </trkpt>
      <trkpt lat="44.86976" lon="5.70942">
        <ele>522</ele>
        <time>2021-06-13T12:05:04+02:00</time>
      </trkpt>
      <trkpt lat="44.86955" lon="5.70931">
        <ele>515</ele>
        <time>2021-06-13T12:09:38+02:00</time>
      </trkpt>
      <trkpt lat="44.86915" lon="5.70902">
        <ele>483</ele>
        <time>2021-06-13T12:11:01+02:00</time>
      </trkpt>
      <trkpt lat="44.86895" lon="5.70885">
        <ele>480</ele>
        <time>2021-06-13T12:11:53+02:00</time>
      </trkpt>
      <trkpt lat="44.86878" lon="5.70865">
        <ele>480</ele>
        <time>2021-06-13T12:12:20+02:00</time>
      </trkpt>
      <trkpt lat="44.86857" lon="5.70851">
        <ele>481</ele>
        <time>2021-06-13T12:12:42+02:00</time>
      </trkpt>
      <trkpt lat="44.86839" lon="5.70833">
        <ele>489</ele>
        <time>2021-06-13T12:13:05+02:00</time>
      </trkpt>
      <trkpt lat="44.86819" lon="5.70815">
        <ele>509</ele>
        <time>2021-06-13T12:13:34+02:00</time>
      </trkpt>
      <trkpt lat="44.868" lon="5.70797">
        <ele>528</ele>
        <time>2021-06-13T12:13:56+02:00</time>
      </trkpt>
      <trkpt lat="44.86785" lon="5.70772">
        <ele>538</ele>
        <time>2021-06-13T12:14:36+02:00</time>
      </trkpt>
      <trkpt lat="44.86788" lon="5.70755">
        <ele>535</ele>
        <time>2021-06-13T12:16:09+02:00</time>
      </trkpt>
      <trkpt lat="44.86788" lon="5.70732">
        <ele>534</ele>
        <time>2021-06-13T12:17:58+02:00</time>
      </trkpt>
      <trkpt lat="44.86794" lon="5.70699">
        <ele>528</ele>
        <time>2021-06-13T12:18:24+02:00</time>
      </trkpt>
      <trkpt lat="44.86801" lon="5.70669">
        <ele>522</ele>
        <time>2021-06-13T12:18:58+02:00</time>
      </trkpt>
      <trkpt lat="44.86811" lon="5.70639">
        <ele>516</ele>
        <time>2021-06-13T12:19:28+02:00</time>
      </trkpt>
      <trkpt lat="44.8682" lon="5.7061">
        <ele>510</ele>
        <time>2021-06-13T12:20:00+02:00</time>
      </trkpt>
      <trkpt lat="44.86833" lon="5.70583">
        <ele>501</ele>
        <time>2021-06-13T12:20:23+02:00</time>
      </trkpt>
      <trkpt lat="44.86847" lon="5.70558">
        <ele>495</ele>
        <time>2021-06-13T12:21:03+02:00</time>
      </trkpt>
      <trkpt lat="44.8686" lon="5.70531">
        <ele>498</ele>
        <time>2021-06-13T12:21:56+02:00</time>
      </trkpt>
      <trkpt lat="44.86845" lon="5.70508">
        <ele>503</ele>
        <time>2021-06-13T12:22:26+02:00</time>
      </trkpt>
      <trkpt lat="44.86844" lon="5.70475">
        <ele>510</ele>
        <time>2021-06-13T12:23:00+02:00</time>
      </trkpt>
      <trkpt lat="44.86848" lon="5.70443">
        <ele>513</ele>
        <time>2021-06-13T12:23:25+02:00</time>
      </trkpt>
      <trkpt lat="44.86845" lon="5.70411">
        <ele>514</ele>
        <time>2021-06-13T12:23:50+02:00</time>
      </trkpt>
      <trkpt lat="44.86832" lon="5.70385">
        <ele>518</ele>
        <time>2021-06-13T12:24:18+02:00</time>
      </trkpt>
      <trkpt lat="44.86815" lon="5.70361">
        <ele>523</ele>
        <time>2021-06-13T12:24:44+02:00</time>
      </trkpt>
      <trkpt lat="44.868" lon="5.70338">
        <ele>525</ele>
        <time>2021-06-13T12:25:03+02:00</time>
      </trkpt>
      <trkpt lat="44.86779" lon="5.70324">
        <ele>531</ele>
        <time>2021-06-13T12:25:35+02:00</time>
      </trkpt>
      <trkpt lat="44.86785" lon="5.70292">
        <ele>522</ele>
        <time>2021-06-13T12:25:53+02:00</time>
      </trkpt>
      <trkpt lat="44.86767" lon="5.70274">
        <ele>532</ele>
        <time>2021-06-13T12:26:50+02:00</time>
      </trkpt>
      <trkpt lat="44.8676" lon="5.70242">
        <ele>534</ele>
        <time>2021-06-13T12:27:40+02:00</time>
      </trkpt>
      <trkpt lat="44.86764" lon="5.70211">
        <ele>529</ele>
        <time>2021-06-13T12:28:05+02:00</time>
      </trkpt>
      <trkpt lat="44.86759" lon="5.7018">
        <ele>532</ele>
        <time>2021-06-13T12:28:44+02:00</time>
      </trkpt>
      <trkpt lat="44.86759" lon="5.70148">
        <ele>532</ele>
        <time>2021-06-13T12:29:09+02:00</time>
      </trkpt>
      <trkpt lat="44.86745" lon="5.70122">
        <ele>544</ele>
        <time>2021-06-13T12:29:37+02:00</time>
      </trkpt>
      <trkpt lat="44.86744" lon="5.7009">
        <ele>550</ele>
        <time>2021-06-13T12:30:13+02:00</time>
      </trkpt>
      <trkpt lat="44.86725" lon="5.70071">
        <ele>561</ele>
        <time>2021-06-13T12:30:28+02:00</time>
      </trkpt>
      <trkpt lat="44.86724" lon="5.70039">
        <ele>565</ele>
        <time>2021-06-13T12:31:10+02:00</time>
      </trkpt>
      <trkpt lat="44.86717" lon="5.70008">
        <ele>567</ele>
        <time>2021-06-13T12:31:35+02:00</time>
      </trkpt>
      <trkpt lat="44.86695" lon="5.70014">
        <ele>576</ele>
        <time>2021-06-13T12:33:18+02:00</time>
      </trkpt>
      <trkpt lat="44.86677" lon="5.70034">
        <ele>584</ele>
        <time>2021-06-13T12:34:00+02:00</time>
      </trkpt>
      <trkpt lat="44.86654" lon="5.70026">
        <ele>592</ele>
        <time>2021-06-13T12:34:42+02:00</time>
      </trkpt>
      <trkpt lat="44.86641" lon="5.7">
        <ele>593</ele>
        <time>2021-06-13T12:35:36+02:00</time>
      </trkpt>
      <trkpt lat="44.86638" lon="5.69969">
        <ele>590</ele>
        <time>2021-06-13T12:35:59+02:00</time>
      </trkpt>
      <trkpt lat="44.86623" lon="5.69944">
        <ele>589</ele>
        <time>2021-06-13T12:36:25+02:00</time>
      </trkpt>
      <trkpt lat="44.86616" lon="5.69913">
        <ele>586</ele>
        <time>2021-06-13T12:36:47+02:00</time>
      </trkpt>
      <trkpt lat="44.86597" lon="5.69893">
        <ele>586</ele>
        <time>2021-06-13T12:37:15+02:00</time>
      </trkpt>
      <trkpt lat="44.86578" lon="5.69876">
        <ele>587</ele>
        <time>2021-06-13T12:37:40+02:00</time>
      </trkpt>
      <trkpt lat="44.86565" lon="5.69849">
        <ele>585</ele>
        <time>2021-06-13T12:38:10+02:00</time>
      </trkpt>
      <trkpt lat="44.86546" lon="5.69829">
        <ele>586</ele>
        <time>2021-06-13T12:39:01+02:00</time>
      </trkpt>
      <trkpt lat="44.86542" lon="5.69797">
        <ele>584</ele>
        <time>2021-06-13T12:39:33+02:00</time>
      </trkpt>
      <trkpt lat="44.86531" lon="5.69769">
        <ele>587</ele>
        <time>2021-06-13T12:40:10+02:00</time>
      </trkpt>
      <trkpt lat="44.86517" lon="5.69793">
        <ele>594</ele>
        <time>2021-06-13T12:42:07+02:00</time>
      </trkpt>
      <trkpt lat="44.86514" lon="5.69808">
        <ele>597</ele>
        <time>2021-06-13T13:15:13+02:00</time>
      </trkpt>
      <trkpt lat="44.86498" lon="5.6982">
        <ele>605</ele>
        <time>2021-06-13T13:16:09+02:00</time>
      </trkpt>
      <trkpt lat="44.86477" lon="5.6983">
        <ele>614</ele>
        <time>2021-06-13T13:16:49+02:00</time>
      </trkpt>
      <trkpt lat="44.86459" lon="5.6985">
        <ele>621</ele>
        <time>2021-06-13T13:17:53+02:00</time>
      </trkpt>
      <trkpt lat="44.8644" lon="5.69867">
        <ele>628</ele>
        <time>2021-06-13T13:19:18+02:00</time>
      </trkpt>
      <trkpt lat="44.86421" lon="5.69886">
        <ele>635</ele>
        <time>2021-06-13T13:20:11+02:00</time>
      </trkpt>
      <trkpt lat="44.86404" lon="5.69908">
        <ele>639</ele>
        <time>2021-06-13T13:20:51+02:00</time>
      </trkpt>
      <trkpt lat="44.86393" lon="5.69936">
        <ele>641</ele>
        <time>2021-06-13T13:22:31+02:00</time>
      </trkpt>
      <trkpt lat="44.86385" lon="5.69966">
        <ele>639</ele>
        <time>2021-06-13T13:22:53+02:00</time>
      </trkpt>
      <trkpt lat="44.86369" lon="5.6999">
        <ele>643</ele>
        <time>2021-06-13T13:23:14+02:00</time>
      </trkpt>
      <trkpt lat="44.86355" lon="5.70015">
        <ele>645</ele>
        <time>2021-06-13T13:23:33+02:00</time>
      </trkpt>
      <trkpt lat="44.86341" lon="5.70042">
        <ele>646</ele>
        <time>2021-06-13T13:24:12+02:00</time>
      </trkpt>
      <trkpt lat="44.86341" lon="5.70074">
        <ele>643</ele>
        <time>2021-06-13T13:24:29+02:00</time>
      </trkpt>
      <trkpt lat="44.86334" lon="5.70105">
        <ele>646</ele>
        <time>2021-06-13T13:24:53+02:00</time>
      </trkpt>
      <trkpt lat="44.86346" lon="5.70132">
        <ele>647</ele>
        <time>2021-06-13T13:25:17+02:00</time>
      </trkpt>
      <trkpt lat="44.86359" lon="5.70159">
        <ele>646</ele>
        <time>2021-06-13T13:25:38+02:00</time>
      </trkpt>
      <trkpt lat="44.86359" lon="5.70192">
        <ele>647</ele>
        <time>2021-06-13T13:26:03+02:00</time>
      </trkpt>
      <trkpt lat="44.86355" lon="5.70225">
        <ele>651</ele>
        <time>2021-06-13T13:26:22+02:00</time>
      </trkpt>
      <trkpt lat="44.86371" lon="5.70247">
        <ele>652</ele>
        <time>2021-06-13T13:26:48+02:00</time>
      </trkpt>
      <trkpt lat="44.86394" lon="5.70259">
        <ele>654</ele>
        <time>2021-06-13T13:27:09+02:00</time>
      </trkpt>
      <trkpt lat="44.86395" lon="5.70284">
        <ele>660</ele>
        <time>2021-06-13T13:28:36+02:00</time>
      </trkpt>
      <trkpt lat="44.86374" lon="5.70298">
        <ele>663</ele>
        <time>2021-06-13T13:28:56+02:00</time>
      </trkpt>
      <trkpt lat="44.86376" lon="5.7033">
        <ele>657</ele>
        <time>2021-06-13T13:29:29+02:00</time>
      </trkpt>
      <trkpt lat="44.86388" lon="5.70357">
        <ele>652</ele>
        <time>2021-06-13T13:29:58+02:00</time>
      </trkpt>
      <trkpt lat="44.864" lon="5.70386">
        <ele>649</ele>
        <time>2021-06-13T13:30:17+02:00</time>
      </trkpt>
      <trkpt lat="44.86393" lon="5.70417">
        <ele>649</ele>
        <time>2021-06-13T13:30:41+02:00</time>
      </trkpt>
      <trkpt lat="44.86381" lon="5.70445">
        <ele>648</ele>
        <time>2021-06-13T13:31:05+02:00</time>
      </trkpt>
      <trkpt lat="44.86372" lon="5.70474">
        <ele>645</ele>
        <time>2021-06-13T13:31:26+02:00</time>
      </trkpt>
      <trkpt lat="44.86382" lon="5.70504">
        <ele>637</ele>
        <time>2021-06-13T13:31:48+02:00</time>
      </trkpt>
      <trkpt lat="44.86394" lon="5.70533">
        <ele>635</ele>
        <time>2021-06-13T13:32:19+02:00</time>
      </trkpt>
      <trkpt lat="44.8641" lon="5.70557">
        <ele>637</ele>
        <time>2021-06-13T13:32:39+02:00</time>
      </trkpt>
      <trkpt lat="44.86426" lon="5.70579">
        <ele>636</ele>
        <time>2021-06-13T13:32:59+02:00</time>
      </trkpt>
      <trkpt lat="44.86441" lon="5.70604">
        <ele>635</ele>
        <time>2021-06-13T13:33:17+02:00</time>
      </trkpt>
      <trkpt lat="44.86456" lon="5.70628">
        <ele>630</ele>
        <time>2021-06-13T13:33:39+02:00</time>
      </trkpt>
      <trkpt lat="44.86461" lon="5.7066">
        <ele>630</ele>
        <time>2021-06-13T13:33:58+02:00</time>
      </trkpt>
      <trkpt lat="44.86473" lon="5.70688">
        <ele>625</ele>
        <time>2021-06-13T13:34:18+02:00</time>
      </trkpt>
      <trkpt lat="44.86486" lon="5.70716">
        <ele>627</ele>
        <time>2021-06-13T13:34:35+02:00</time>
      </trkpt>
      <trkpt lat="44.8651" lon="5.70719">
        <ele>627</ele>
        <time>2021-06-13T13:35:02+02:00</time>
      </trkpt>
      <trkpt lat="44.86528" lon="5.70699">
        <ele>622</ele>
        <time>2021-06-13T13:35:23+02:00</time>
      </trkpt>
      <trkpt lat="44.86546" lon="5.70678">
        <ele>620</ele>
        <time>2021-06-13T13:36:05+02:00</time>
      </trkpt>
      <trkpt lat="44.86553" lon="5.70646">
        <ele>611</ele>
        <time>2021-06-13T13:36:28+02:00</time>
      </trkpt>
      <trkpt lat="44.86562" lon="5.70617">
        <ele>606</ele>
        <time>2021-06-13T13:36:57+02:00</time>
      </trkpt>
      <trkpt lat="44.86577" lon="5.70593">
        <ele>603</ele>
        <time>2021-06-13T13:37:30+02:00</time>
      </trkpt>
      <trkpt lat="44.86596" lon="5.70575">
        <ele>601</ele>
        <time>2021-06-13T13:37:53+02:00</time>
      </trkpt>
      <trkpt lat="44.86613" lon="5.70552">
        <ele>594</ele>
        <time>2021-06-13T13:38:17+02:00</time>
      </trkpt>
      <trkpt lat="44.86635" lon="5.70538">
        <ele>590</ele>
        <time>2021-06-13T13:38:39+02:00</time>
      </trkpt>
      <trkpt lat="44.86658" lon="5.70536">
        <ele>588</ele>
        <time>2021-06-13T13:39:09+02:00</time>
      </trkpt>
      <trkpt lat="44.86678" lon="5.70551">
        <ele>590</ele>
        <time>2021-06-13T13:39:30+02:00</time>
      </trkpt>
      <trkpt lat="44.86685" lon="5.70582">
        <ele>592</ele>
        <time>2021-06-13T13:39:56+02:00</time>
      </trkpt>
      <trkpt lat="44.86684" lon="5.70615">
        <ele>596</ele>
        <time>2021-06-13T13:40:23+02:00</time>
      </trkpt>
      <trkpt lat="44.86691" lon="5.70645">
        <ele>592</ele>
        <time>2021-06-13T13:40:49+02:00</time>
      </trkpt>
      <trkpt lat="44.86698" lon="5.70676">
        <ele>589</ele>
        <time>2021-06-13T13:41:17+02:00</time>
      </trkpt>
      <trkpt lat="44.86706" lon="5.70706">
        <ele>585</ele>
        <time>2021-06-13T13:41:42+02:00</time>
      </trkpt>
      <trkpt lat="44.8672" lon="5.7068">
        <ele>573</ele>
        <time>2021-06-13T13:42:22+02:00</time>
      </trkpt>
      <trkpt lat="44.86719" lon="5.70648">
        <ele>573</ele>
        <time>2021-06-13T13:42:44+02:00</time>
      </trkpt>
      <trkpt lat="44.86718" lon="5.70616">
        <ele>574</ele>
        <time>2021-06-13T13:43:00+02:00</time>
      </trkpt>
      <trkpt lat="44.86731" lon="5.70642">
        <ele>565</ele>
        <time>2021-06-13T13:43:53+02:00</time>
      </trkpt>
      <trkpt lat="44.86734" lon="5.70676">
        <ele>564</ele>
        <time>2021-06-13T13:44:16+02:00</time>
      </trkpt>
      <trkpt lat="44.86747" lon="5.70704">
        <ele>557</ele>
        <time>2021-06-13T13:44:45+02:00</time>
      </trkpt>
      <trkpt lat="44.86758" lon="5.70733">
        <ele>552</ele>
        <time>2021-06-13T13:45:17+02:00</time>
      </trkpt>
      <trkpt lat="44.86769" lon="5.70761">
        <ele>547</ele>
        <time>2021-06-13T13:45:49+02:00</time>
      </trkpt>
      <trkpt lat="44.86788" lon="5.7078">
        <ele>537</ele>
        <time>2021-06-13T13:46:14+02:00</time>
      </trkpt>
      <trkpt lat="44.86801" lon="5.70806">
        <ele>527</ele>
        <time>2021-06-13T13:47:21+02:00</time>
      </trkpt>
      <trkpt lat="44.8682" lon="5.70824">
        <ele>504</ele>
        <time>2021-06-13T13:47:46+02:00</time>
      </trkpt>
      <trkpt lat="44.86841" lon="5.70839">
        <ele>487</ele>
        <time>2021-06-13T13:48:09+02:00</time>
      </trkpt>
      <trkpt lat="44.8686" lon="5.70856">
        <ele>480</ele>
        <time>2021-06-13T13:48:40+02:00</time>
      </trkpt>
      <trkpt lat="44.86881" lon="5.7087">
        <ele>480</ele>
        <time>2021-06-13T13:49:08+02:00</time>
      </trkpt>
      <trkpt lat="44.86902" lon="5.70887">
        <ele>480</ele>
        <time>2021-06-13T13:49:57+02:00</time>
      </trkpt>
      <trkpt lat="44.86921" lon="5.70906">
        <ele>486</ele>
        <time>2021-06-13T13:50:28+02:00</time>
      </trkpt>
      <trkpt lat="44.86941" lon="5.70922">
        <ele>507</ele>
        <time>2021-06-13T13:51:04+02:00</time>
      </trkpt>
      <trkpt lat="44.86961" lon="5.70934">
        <ele>517</ele>
        <time>2021-06-13T13:51:37+02:00</time>
      </trkpt>
      <trkpt lat="44.86981" lon="5.7095">
        <ele>526</ele>
        <time>2021-06-13T13:52:36+02:00</time>
      </trkpt>
      <trkpt lat="44.86962" lon="5.70967">
        <ele>533</ele>
        <time>2021-06-13T13:54:30+02:00</time>
      </trkpt>
      <trkpt lat="44.86955" lon="5.70998">
        <ele>547</ele>
        <time>2021-06-13T13:56:48+02:00</time>
      </trkpt>
      <trkpt lat="44.86959" lon="5.7103">
        <ele>558</ele>
        <time>2021-06-13T13:59:33+02:00</time>
      </trkpt>
      <trkpt lat="44.8696" lon="5.71062">
        <ele>567</ele>
        <time>2021-06-13T14:00:02+02:00</time>
      </trkpt>
      <trkpt lat="44.86978" lon="5.71043">
        <ele>570</ele>
        <time>2021-06-13T14:00:50+02:00</time>
      </trkpt>
      <trkpt lat="44.86999" lon="5.71056">
        <ele>578</ele>
        <time>2021-06-13T14:01:17+02:00</time>
      </trkpt>
      <trkpt lat="44.87017" lon="5.71076">
        <ele>580</ele>
        <time>2021-06-13T14:01:39+02:00</time>
      </trkpt>
      <trkpt lat="44.87022" lon="5.71082">
        <ele>581</ele>
        <time>2021-06-13T14:03:54+02:00</time>
      </trkpt>
      <trkpt lat="44.87044" lon="5.71087">
        <ele>584</ele>
        <time>2021-06-13T14:04:00+02:00</time>
      </trkpt>
      <trkpt lat="44.87064" lon="5.71102">
        <ele>588</ele>
        <time>2021-06-13T14:04:22+02:00</time>
      </trkpt>
      <trkpt lat="44.87085" lon="5.71117">
        <ele>591</ele>
        <time>2021-06-13T14:04:49+02:00</time>
      </trkpt>
      <trkpt lat="44.87107" lon="5.71124">
        <ele>593</ele>
        <time>2021-06-13T14:05:54+02:00</time>
      </trkpt>
      <trkpt lat="44.87128" lon="5.71138">
        <ele>596</ele>
        <time>2021-06-13T14:06:22+02:00</time>
      </trkpt>
      <trkpt lat="44.87148" lon="5.71155">
        <ele>600</ele>
        <time>2021-06-13T14:07:12+02:00</time>
      </trkpt>
      <trkpt lat="44.87165" lon="5.71177">
        <ele>606</ele>
        <time>2021-06-13T14:07:43+02:00</time>
      </trkpt>
      <trkpt lat="44.87188" lon="5.71179">
        <ele>609</ele>
        <time>2021-06-13T14:09:21+02:00</time>
      </trkpt>
      <trkpt lat="44.8721" lon="5.71167">
        <ele>609</ele>
        <time>2021-06-13T14:09:38+02:00</time>
      </trkpt>
      <trkpt lat="44.8723" lon="5.7115">
        <ele>610</ele>
        <time>2021-06-13T14:10:00+02:00</time>
      </trkpt>
      <trkpt lat="44.8725" lon="5.71163">
        <ele>616</ele>
        <time>2021-06-13T14:10:23+02:00</time>
      </trkpt>
      <trkpt lat="44.87265" lon="5.71189">
        <ele>620</ele>
        <time>2021-06-13T14:11:48+02:00</time>
      </trkpt>
      <trkpt lat="44.87281" lon="5.71213">
        <ele>624</ele>
        <time>2021-06-13T14:12:17+02:00</time>
      </trkpt>
      <trkpt lat="44.87293" lon="5.7124">
        <ele>627</ele>
        <time>2021-06-13T14:12:59+02:00</time>
      </trkpt>
      <trkpt lat="44.87302" lon="5.7127">
        <ele>632</ele>
        <time>2021-06-13T14:13:43+02:00</time>
      </trkpt>
      <trkpt lat="44.87313" lon="5.71298">
        <ele>637</ele>
        <time>2021-06-13T14:14:13+02:00</time>
      </trkpt>
      <trkpt lat="44.87321" lon="5.71341">
        <ele>643</ele>
        <time>2021-06-13T14:19:44+02:00</time>
      </trkpt>
      <trkpt lat="44.8734" lon="5.71321">
        <ele>645</ele>
        <time>2021-06-13T14:20:08+02:00</time>
      </trkpt>
      <trkpt lat="44.87349" lon="5.71291">
        <ele>645</ele>
        <time>2021-06-13T14:20:34+02:00</time>
      </trkpt>
      <trkpt lat="44.87356" lon="5.7126">
        <ele>643</ele>
        <time>2021-06-13T14:20:59+02:00</time>
      </trkpt>
      <trkpt lat="44.87358" lon="5.71228">
        <ele>639</ele>
        <time>2021-06-13T14:21:19+02:00</time>
      </trkpt>
      <trkpt lat="44.87373" lon="5.71204">
        <ele>642</ele>
        <time>2021-06-13T14:21:43+02:00</time>
      </trkpt>
      <trkpt lat="44.87387" lon="5.71178">
        <ele>645</ele>
        <time>2021-06-13T14:22:05+02:00</time>
      </trkpt>
      <trkpt lat="44.87392" lon="5.71147">
        <ele>645</ele>
        <time>2021-06-13T14:22:35+02:00</time>
      </trkpt>
      <trkpt lat="44.87398" lon="5.71115">
        <ele>646</ele>
        <time>2021-06-13T14:23:00+02:00</time>
      </trkpt>
      <trkpt lat="44.87389" lon="5.71084">
        <ele>638</ele>
        <time>2021-06-13T14:23:21+02:00</time>
      </trkpt>
      <trkpt lat="44.87387" lon="5.71052">
        <ele>634</ele>
        <time>2021-06-13T14:23:45+02:00</time>
      </trkpt>
      <trkpt lat="44.87407" lon="5.71038">
        <ele>641</ele>
        <time>2021-06-13T14:25:10+02:00</time>
      </trkpt>
      <trkpt lat="44.8742" lon="5.71011">
        <ele>641</ele>
        <time>2021-06-13T14:26:08+02:00</time>
      </trkpt>
      <trkpt lat="44.87439" lon="5.70993">
        <ele>642</ele>
        <time>2021-06-13T14:26:38+02:00</time>
      </trkpt>
      <trkpt lat="44.87461" lon="5.70981">
        <ele>643</ele>
        <time>2021-06-13T14:27:00+02:00</time>
      </trkpt>
      <trkpt lat="44.87481" lon="5.70969">
        <ele>644</ele>
        <time>2021-06-13T14:27:19+02:00</time>
      </trkpt>
      <trkpt lat="44.87501" lon="5.70952">
        <ele>644</ele>
        <time>2021-06-13T14:27:36+02:00</time>
      </trkpt>
      <trkpt lat="44.8752" lon="5.70936">
        <ele>643</ele>
        <time>2021-06-13T14:27:55+02:00</time>
      </trkpt>
      <trkpt lat="44.87531" lon="5.70907">
        <ele>640</ele>
        <time>2021-06-13T14:28:16+02:00</time>
      </trkpt>
      <trkpt lat="44.87535" lon="5.70875">
        <ele>639</ele>
        <time>2021-06-13T14:28:31+02:00</time>
      </trkpt>
      <trkpt lat="44.87534" lon="5.70843">
        <ele>636</ele>
        <time>2021-06-13T14:28:51+02:00</time>
      </trkpt>
      <trkpt lat="44.87512" lon="5.70846">
        <ele>633</ele>
        <time>2021-06-13T14:29:32+02:00</time>
      </trkpt>
      <trkpt lat="44.8749" lon="5.70858">
        <ele>629</ele>
        <time>2021-06-13T14:29:53+02:00</time>
      </trkpt>
      <trkpt lat="44.87469" lon="5.70846">
        <ele>625</ele>
        <time>2021-06-13T14:30:20+02:00</time>
      </trkpt>
      <trkpt lat="44.8745" lon="5.70828">
        <ele>623</ele>
        <time>2021-06-13T14:30:54+02:00</time>
      </trkpt>
      <trkpt lat="44.87431" lon="5.70808">
        <ele>620</ele>
        <time>2021-06-13T14:31:11+02:00</time>
      </trkpt>
      <trkpt lat="44.87418" lon="5.70782">
        <ele>616</ele>
        <time>2021-06-13T14:31:52+02:00</time>
      </trkpt>
      <trkpt lat="44.87422" lon="5.7075">
        <ele>615</ele>
        <time>2021-06-13T14:32:26+02:00</time>
      </trkpt>
      <trkpt lat="44.87427" lon="5.70718">
        <ele>613</ele>
        <time>2021-06-13T14:32:47+02:00</time>
      </trkpt>
      <trkpt lat="44.87434" lon="5.70687">
        <ele>611</ele>
        <time>2021-06-13T14:33:09+02:00</time>
      </trkpt>
      <trkpt lat="44.87427" lon="5.70656">
        <ele>607</ele>
        <time>2021-06-13T14:33:29+02:00</time>
      </trkpt>
      <trkpt lat="44.87422" lon="5.70624">
        <ele>603</ele>
        <time>2021-06-13T14:33:51+02:00</time>
      </trkpt>
      <trkpt lat="44.87412" lon="5.70594">
        <ele>598</ele>
        <time>2021-06-13T14:34:17+02:00</time>
      </trkpt>
      <trkpt lat="44.8739" lon="5.70588">
        <ele>592</ele>
        <time>2021-06-13T14:34:43+02:00</time>
      </trkpt>
      <trkpt lat="44.87381" lon="5.70618">
        <ele>592</ele>
        <time>2021-06-13T14:35:04+02:00</time>
      </trkpt>
      <trkpt lat="44.87372" lon="5.70647">
        <ele>591</ele>
        <time>2021-06-13T14:35:25+02:00</time>
      </trkpt>
      <trkpt lat="44.87349" lon="5.70648">
        <ele>585</ele>
        <time>2021-06-13T14:35:46+02:00</time>
      </trkpt>
      <trkpt lat="44.87325" lon="5.70647">
        <ele>580</ele>
        <time>2021-06-13T14:36:05+02:00</time>
      </trkpt>
      <trkpt lat="44.87305" lon="5.70661">
        <ele>579</ele>
        <time>2021-06-13T14:36:30+02:00</time>
      </trkpt>
      <trkpt lat="44.873" lon="5.70629">
        <ele>572</ele>
        <time>2021-06-13T14:37:02+02:00</time>
      </trkpt>
      <trkpt lat="44.87319" lon="5.70611">
        <ele>571</ele>
        <time>2021-06-13T14:37:24+02:00</time>
      </trkpt>
      <trkpt lat="44.87331" lon="5.70582">
        <ele>570</ele>
        <time>2021-06-13T14:37:48+02:00</time>
      </trkpt>
      <trkpt lat="44.87321" lon="5.70554">
        <ele>565</ele>
        <time>2021-06-13T14:38:10+02:00</time>
      </trkpt>
      <trkpt lat="44.87303" lon="5.70533">
        <ele>560</ele>
        <time>2021-06-13T14:38:35+02:00</time>
      </trkpt>
      <trkpt lat="44.87294" lon="5.70503">
        <ele>555</ele>
        <time>2021-06-13T14:39:52+02:00</time>
      </trkpt>
      <trkpt lat="44.87304" lon="5.70474">
        <ele>552</ele>
        <time>2021-06-13T14:40:11+02:00</time>
      </trkpt>
      <trkpt lat="44.87315" lon="5.70445">
        <ele>551</ele>
        <time>2021-06-13T14:40:30+02:00</time>
      </trkpt>
      <trkpt lat="44.87324" lon="5.70415">
        <ele>553</ele>
        <time>2021-06-13T14:40:52+02:00</time>
      </trkpt>
      <trkpt lat="44.87306" lon="5.70395">
        <ele>551</ele>
        <time>2021-06-13T14:41:16+02:00</time>
      </trkpt>
      <trkpt lat="44.87298" lon="5.70365">
        <ele>552</ele>
        <time>2021-06-13T14:41:37+02:00</time>
      </trkpt>
      <trkpt lat="44.87285" lon="5.70339">
        <ele>552</ele>
        <time>2021-06-13T14:42:02+02:00</time>
      </trkpt>
      <trkpt lat="44.87269" lon="5.70315">
        <ele>551</ele>
        <time>2021-06-13T14:42:22+02:00</time>
      </trkpt>
      <trkpt lat="44.87258" lon="5.70287">
        <ele>550</ele>
        <time>2021-06-13T14:43:01+02:00</time>
      </trkpt>
      <trkpt lat="44.87248" lon="5.70257">
        <ele>550</ele>
        <time>2021-06-13T14:43:25+02:00</time>
      </trkpt>
      <trkpt lat="44.87245" lon="5.70225">
        <ele>550</ele>
        <time>2021-06-13T14:43:47+02:00</time>
      </trkpt>
      <trkpt lat="44.87246" lon="5.70192">
        <ele>550</ele>
        <time>2021-06-13T14:44:10+02:00</time>
      </trkpt>
      <trkpt lat="44.87238" lon="5.70161">
        <ele>549</ele>
        <time>2021-06-13T14:44:30+02:00</time>
      </trkpt>
      <trkpt lat="44.87228" lon="5.70132">
        <ele>549</ele>
        <time>2021-06-13T14:44:53+02:00</time>
      </trkpt>
      <trkpt lat="44.87214" lon="5.70104">
        <ele>547</ele>
        <time>2021-06-13T14:45:18+02:00</time>
      </trkpt>
      <trkpt lat="44.87201" lon="5.70078">
        <ele>543</ele>
        <time>2021-06-13T14:45:46+02:00</time>
      </trkpt>
      <trkpt lat="44.87209" lon="5.70047">
        <ele>537</ele>
        <time>2021-06-13T14:46:12+02:00</time>
      </trkpt>
      <trkpt lat="44.8723" lon="5.70039">
        <ele>536</ele>
        <time>2021-06-13T14:46:49+02:00</time>
      </trkpt>
      <trkpt lat="44.87252" lon="5.70029">
        <ele>534</ele>
        <time>2021-06-13T14:47:48+02:00</time>
      </trkpt>
      <trkpt lat="44.87275" lon="5.70025">
        <ele>533</ele>
        <time>2021-06-13T14:48:12+02:00</time>
      </trkpt>
      <trkpt lat="44.87298" lon="5.70018">
        <ele>533</ele>
        <time>2021-06-13T14:48:36+02:00</time>
      </trkpt>
      <trkpt lat="44.8732" lon="5.70015">
        <ele>534</ele>
        <time>2021-06-13T14:48:55+02:00</time>
      </trkpt>
      <trkpt lat="44.87344" lon="5.7001">
        <ele>536</ele>
        <time>2021-06-13T14:49:18+02:00</time>
      </trkpt>
      <trkpt lat="44.87363" lon="5.69992">
        <ele>533</ele>
        <time>2021-06-13T14:49:38+02:00</time>
      </trkpt>
      <trkpt lat="44.8738" lon="5.6997">
        <ele>531</ele>
        <time>2021-06-13T14:49:58+02:00</time>
      </trkpt>
      <trkpt lat="44.87397" lon="5.69951">
        <ele>530</ele>
        <time>2021-06-13T14:50:20+02:00</time>
      </trkpt>
      <trkpt lat="44.87411" lon="5.69925">
        <ele>529</ele>
        <time>2021-06-13T14:50:43+02:00</time>
      </trkpt>
      <trkpt lat="44.8742" lon="5.69895">
        <ele>525</ele>
        <time>2021-06-13T14:51:05+02:00</time>
      </trkpt>
      <trkpt lat="44.87433" lon="5.69868">
        <ele>523</ele>
        <time>2021-06-13T14:51:30+02:00</time>
      </trkpt>
      <trkpt lat="44.87446" lon="5.69841">
        <ele>522</ele>
        <time>2021-06-13T14:51:56+02:00</time>
      </trkpt>
      <trkpt lat="44.87461" lon="5.69817">
        <ele>521</ele>
        <time>2021-06-13T14:52:22+02:00</time>
      </trkpt>
      <trkpt lat="44.87472" lon="5.69789">
        <ele>517</ele>
        <time>2021-06-13T14:52:43+02:00</time>
      </trkpt>
      <trkpt lat="44.87449" lon="5.69795">
        <ele>512</ele>
        <time>2021-06-13T14:53:22+02:00</time>
      </trkpt>
      <trkpt lat="44.87427" lon="5.69805">
        <ele>509</ele>
        <time>2021-06-13T14:53:48+02:00</time>
      </trkpt>
      <trkpt lat="44.87426" lon="5.69772">
        <ele>502</ele>
        <time>2021-06-13T14:54:36+02:00</time>
      </trkpt>
      <trkpt lat="44.87436" lon="5.69744">
        <ele>494</ele>
        <time>2021-06-13T14:54:58+02:00</time>
      </trkpt>
      <trkpt lat="44.87451" lon="5.69721">
        <ele>489</ele>
        <time>2021-06-13T14:55:21+02:00</time>
      </trkpt>
      <trkpt lat="44.8747" lon="5.69703">
        <ele>488</ele>
        <time>2021-06-13T14:55:42+02:00</time>
      </trkpt>
      <trkpt lat="44.87491" lon="5.69691">
        <ele>490</ele>
        <time>2021-06-13T14:56:04+02:00</time>
      </trkpt>
      <trkpt lat="44.87514" lon="5.69684">
        <ele>492</ele>
        <time>2021-06-13T14:56:30+02:00</time>
      </trkpt>
      <trkpt lat="44.87537" lon="5.69681">
        <ele>490</ele>
        <time>2021-06-13T14:56:55+02:00</time>
      </trkpt>
      <trkpt lat="44.87559" lon="5.69689">
        <ele>487</ele>
        <time>2021-06-13T14:57:32+02:00</time>
      </trkpt>
      <trkpt lat="44.87582" lon="5.69683">
        <ele>490</ele>
        <time>2021-06-13T14:58:18+02:00</time>
      </trkpt>
      <trkpt lat="44.87594" lon="5.69655">
        <ele>493</ele>
        <time>2021-06-13T14:58:46+02:00</time>
      </trkpt>
      <trkpt lat="44.87604" lon="5.69626">
        <ele>495</ele>
        <time>2021-06-13T14:59:05+02:00</time>
      </trkpt>
      <trkpt lat="44.87614" lon="5.69598">
        <ele>494</ele>
        <time>2021-06-13T14:59:27+02:00</time>
      </trkpt>
      <trkpt lat="44.87633" lon="5.6958">
        <ele>500</ele>
        <time>2021-06-13T14:59:52+02:00</time>
      </trkpt>
      <trkpt lat="44.87646" lon="5.69554">
        <ele>499</ele>
        <time>2021-06-13T15:00:28+02:00</time>
      </trkpt>
      <trkpt lat="44.87667" lon="5.69539">
        <ele>497</ele>
        <time>2021-06-13T15:00:57+02:00</time>
      </trkpt>
      <trkpt lat="44.8769" lon="5.69542">
        <ele>495</ele>
        <time>2021-06-13T15:01:28+02:00</time>
      </trkpt>
      <trkpt lat="44.87713" lon="5.69547">
        <ele>495</ele>
        <time>2021-06-13T15:01:50+02:00</time>
      </trkpt>
      <trkpt lat="44.87736" lon="5.6954">
        <ele>496</ele>
        <time>2021-06-13T15:02:07+02:00</time>
      </trkpt>
      <trkpt lat="44.87751" lon="5.69514">
        <ele>504</ele>
        <time>2021-06-13T15:02:27+02:00</time>
      </trkpt>
      <trkpt lat="44.87735" lon="5.69491">
        <ele>497</ele>
        <time>2021-06-13T15:02:50+02:00</time>
      </trkpt>
      <trkpt lat="44.87721" lon="5.69465">
        <ele>497</ele>
        <time>2021-06-13T15:03:18+02:00</time>
      </trkpt>
      <trkpt lat="44.87708" lon="5.69436">
        <ele>494</ele>
        <time>2021-06-13T15:03:37+02:00</time>
      </trkpt>
      <trkpt lat="44.87703" lon="5.69404">
        <ele>493</ele>
        <time>2021-06-13T15:03:56+02:00</time>
      </trkpt>
      <trkpt lat="44.87702" lon="5.69372">
        <ele>490</ele>
        <time>2021-06-13T15:04:16+02:00</time>
      </trkpt>
      <trkpt lat="44.87705" lon="5.69339">
        <ele>488</ele>
        <time>2021-06-13T15:04:52+02:00</time>
      </trkpt>
      <trkpt lat="44.8771" lon="5.69308">
        <ele>490</ele>
        <time>2021-06-13T15:05:08+02:00</time>
      </trkpt>
      <trkpt lat="44.87715" lon="5.69277">
        <ele>494</ele>
        <time>2021-06-13T15:05:29+02:00</time>
      </trkpt>
      <trkpt lat="44.87721" lon="5.69246">
        <ele>497</ele>
        <time>2021-06-13T15:05:47+02:00</time>
      </trkpt>
      <trkpt lat="44.87728" lon="5.69215">
        <ele>497</ele>
        <time>2021-06-13T15:06:09+02:00</time>
      </trkpt>
      <trkpt lat="44.87737" lon="5.69186">
        <ele>495</ele>
        <time>2021-06-13T15:06:29+02:00</time>
      </trkpt>
      <trkpt lat="44.87754" lon="5.69164">
        <ele>495</ele>
        <time>2021-06-13T15:06:48+02:00</time>
      </trkpt>
      <trkpt lat="44.87774" lon="5.69147">
        <ele>496</ele>
        <time>2021-06-13T15:07:13+02:00</time>
      </trkpt>
      <trkpt lat="44.87794" lon="5.69131">
        <ele>496</ele>
        <time>2021-06-13T15:07:35+02:00</time>
      </trkpt>
      <trkpt lat="44.87817" lon="5.69123">
        <ele>497</ele>
        <time>2021-06-13T15:07:58+02:00</time>
      </trkpt>
    </trkseg>
  </trk>
</gpx>